createdAt,value
2023-01-07T00:01:43.455Z,61.27
2023-01-07T00:04:14.094Z,61.43
2023-01-07T00:06:44.231Z,61.57
2023-01-07T00:09:16.527Z,61.81
2023-01-07T00:11:48.015Z,62.02
2023-01-07T00:14:18.858Z,62.07
2023-01-07T00:16:47.154Z,62.15
2023-01-07T00:19:21.835Z,62.79
2023-01-07T00:21:50.127Z,63.04
2023-01-07T00:24:20.853Z,63.44
2023-01-07T00:26:50.502Z,63.47
2023-01-07T00:29:19.386Z,63.56
2023-01-07T00:31:48.642Z,63.93
2023-01-07T00:34:17.863Z,64.39
2023-01-07T00:36:47.652Z,64.76
2023-01-07T00:39:22.297Z,64.29
2023-01-07T00:42:16.002Z,65.21
2023-01-07T00:44:46.472Z,65.30
2023-01-07T00:47:26.602Z,64.50
2023-01-07T00:50:18.575Z,64.43
2023-01-07T00:52:56.723Z,65.36
2023-01-07T00:55:33.065Z,65.01
2023-01-07T00:58:15.620Z,64.94
2023-01-07T01:00:58.574Z,65.23
2023-01-07T01:03:39.224Z,65.68
2023-01-07T01:06:16.276Z,65.42
2023-01-07T01:08:47.687Z,66.00
2023-01-07T01:11:28.125Z,65.44
2023-01-07T01:13:57.811Z,65.17
2023-01-07T01:16:28.043Z,65.40
2023-01-07T01:19:02.100Z,66.01
2023-01-07T01:21:31.780Z,65.30
2023-01-07T01:24:09.785Z,65.73
2023-01-07T01:26:48.391Z,65.74
2023-01-07T01:29:18.646Z,65.75
2023-01-07T01:31:59.819Z,65.41
2023-01-07T01:34:34.085Z,65.15
2023-01-07T01:37:07.346Z,65.59
2023-01-07T01:39:38.238Z,65.65
2023-01-07T01:42:14.734Z,65.66
2023-01-07T01:44:51.598Z,65.22
2023-01-07T01:47:32.889Z,65.19
2023-01-07T01:50:05.489Z,65.64
2023-01-07T01:52:39.034Z,65.51
2023-01-07T01:55:09.794Z,66.12
2023-01-07T01:57:39.768Z,65.98
2023-01-07T02:00:11.405Z,65.40
2023-01-07T02:02:47.298Z,65.53
2023-01-07T02:05:16.657Z,66.19
2023-01-07T02:07:44.732Z,65.95
2023-01-07T02:10:16.152Z,65.91
2023-01-07T02:12:54.905Z,65.74
2023-01-07T02:15:34.293Z,65.17
2023-01-07T02:18:18.953Z,65.08
2023-01-07T02:21:03.366Z,65.07
2023-01-07T02:24:28.568Z,64.98
2023-01-07T02:27:10.665Z,65.66
2023-01-07T02:30:14.851Z,65.25
2023-01-07T02:33:07.140Z,65.38
2023-01-07T02:35:59.748Z,64.84
2023-01-07T02:38:35.731Z,65.25
2023-01-07T02:41:11.090Z,64.95
2023-01-07T02:43:48.282Z,65.31
2023-01-07T02:46:22.837Z,65.29
2023-01-07T02:48:53.133Z,65.16
2023-01-07T02:51:21.699Z,65.76
2023-01-07T02:53:50.512Z,65.91
2023-01-07T02:56:29.915Z,65.60
2023-01-07T02:59:36.724Z,65.59
2023-01-07T03:02:31.825Z,65.50
2023-01-07T03:05:28.365Z,65.80
2023-01-07T03:08:08.811Z,65.78
2023-01-07T03:10:43.664Z,65.62
2023-01-07T03:13:17.718Z,65.92
2023-01-07T03:15:49.229Z,65.80
2023-01-07T03:18:19.775Z,65.78
2023-01-07T03:20:54.485Z,65.68
2023-01-07T03:23:26.377Z,65.56
2023-01-07T03:25:56.798Z,65.88
2023-01-07T03:28:27.945Z,65.82
2023-01-07T03:30:58.348Z,66.06
2023-01-07T03:33:32.329Z,65.88
2023-01-07T03:36:03.851Z,65.70
2023-01-07T03:38:32.413Z,66.50
2023-01-07T03:41:00.755Z,66.59
2023-01-07T03:43:28.559Z,66.46
2023-01-07T03:45:59.126Z,66.43
2023-01-07T03:48:28.753Z,65.89
2023-01-07T03:50:57.405Z,65.82
2023-01-07T03:53:26.923Z,65.66
2023-01-07T03:55:54.989Z,65.55
2023-01-07T03:58:23.051Z,65.67
2023-01-07T04:00:55.450Z,65.65
2023-01-07T04:03:23.639Z,65.77
2023-01-07T04:05:51.679Z,65.11
2023-01-07T04:08:20.014Z,65.27
2023-01-07T04:10:49.401Z,64.66
2023-01-07T04:13:19.087Z,65.08
2023-01-07T04:15:49.464Z,64.70
2023-01-07T04:18:17.553Z,64.66
2023-01-07T04:20:48.006Z,64.54
2023-01-07T04:23:17.542Z,64.71
2023-01-07T04:25:49.510Z,64.34
2023-01-07T04:28:21.052Z,64.25
2023-01-07T04:30:49.236Z,64.55
2023-01-07T04:33:17.448Z,64.54
2023-01-07T04:35:47.950Z,64.26
2023-01-07T04:38:16.868Z,63.85
2023-01-07T04:40:44.993Z,64.24
2023-01-07T04:43:15.431Z,64.14
2023-01-07T04:45:43.514Z,64.62
2023-01-07T04:48:11.715Z,63.86
2023-01-07T04:50:40.268Z,63.75
2023-01-07T04:53:09.190Z,63.15
2023-01-07T04:55:39.039Z,62.96
2023-01-07T04:58:07.112Z,63.10
2023-01-07T05:00:36.531Z,63.33
2023-01-07T05:03:05.909Z,63.31
2023-01-07T05:05:34.767Z,63.17
2023-01-07T05:08:03.702Z,63.02
2023-01-07T05:10:32.969Z,63.08
2023-01-07T05:13:06.867Z,62.71
2023-01-07T05:15:37.642Z,62.47
2023-01-07T05:18:07.255Z,62.43
2023-01-07T05:20:35.637Z,62.20
2023-01-07T05:23:05.676Z,62.24
2023-01-07T05:25:34.622Z,62.47
2023-01-07T05:28:02.726Z,62.64
2023-01-07T05:30:32.958Z,62.40
2023-01-07T05:33:02.400Z,62.07
2023-01-07T05:35:30.447Z,61.96
2023-01-07T05:37:58.522Z,62.32
2023-01-07T05:40:26.606Z,62.16
2023-01-07T05:42:54.628Z,61.79
2023-01-07T05:45:22.908Z,62.26
2023-01-07T05:47:51.024Z,62.09
2023-01-07T05:50:20.464Z,61.89
2023-01-07T05:52:48.517Z,61.57
2023-01-07T05:55:16.683Z,61.51
2023-01-07T05:57:44.800Z,61.70
2023-01-07T06:00:14.038Z,61.67
2023-01-07T06:02:42.047Z,61.77
2023-01-07T06:05:11.141Z,61.52
2023-01-07T06:07:40.573Z,61.43
2023-01-07T06:10:09.160Z,61.36
2023-01-07T06:12:37.175Z,61.47
2023-01-07T06:15:07.103Z,61.31
2023-01-07T06:17:35.448Z,61.44
2023-01-07T06:20:03.512Z,61.40
2023-01-07T06:22:31.629Z,61.70
2023-01-07T06:25:00.997Z,61.17
2023-01-07T06:27:29.052Z,61.08
2023-01-07T06:29:57.071Z,61.52
2023-01-07T06:32:25.157Z,61.48
2023-01-07T06:34:53.391Z,61.21
2023-01-07T06:37:21.391Z,61.51
2023-01-07T06:39:49.427Z,61.21
2023-01-07T06:42:18.831Z,60.76
2023-01-07T06:44:46.853Z,61.16
2023-01-07T06:47:14.909Z,61.07
2023-01-07T06:49:42.891Z,61.06
2023-01-07T06:52:10.966Z,61.04
2023-01-07T06:54:39.091Z,60.72
2023-01-07T06:57:07.154Z,60.47
2023-01-07T06:59:36.540Z,60.27
2023-01-07T07:02:04.801Z,60.18
2023-01-07T07:04:40.902Z,60.37
2023-01-07T07:07:09.051Z,60.78
2023-01-07T07:09:37.194Z,60.47
2023-01-07T07:12:05.687Z,60.43
2023-01-07T07:14:33.744Z,60.76
2023-01-07T07:17:03.385Z,60.28
2023-01-07T07:19:31.547Z,60.66
2023-01-07T07:21:59.763Z,60.75
2023-01-07T07:24:27.793Z,60.52
2023-01-07T07:26:55.820Z,60.29
2023-01-07T07:29:23.911Z,60.24
2023-01-07T07:31:51.930Z,60.06
2023-01-07T07:34:21.341Z,60.09
2023-01-07T07:36:49.443Z,60.04
2023-01-07T07:39:17.456Z,60.38
2023-01-07T07:41:45.696Z,60.67
2023-01-07T07:44:17.528Z,60.66
2023-01-07T07:46:45.651Z,60.59
2023-01-07T07:49:13.866Z,60.05
2023-01-07T07:51:43.291Z,60.05
2023-01-07T07:54:11.336Z,60.05
2023-01-07T07:56:39.384Z,59.97
2023-01-07T07:59:07.422Z,59.71
2023-01-07T08:01:37.339Z,59.88
2023-01-07T08:04:05.742Z,59.93
2023-01-07T08:06:34.344Z,59.72
2023-01-07T08:09:04.077Z,59.25
2023-01-07T08:11:32.161Z,59.16
2023-01-07T08:14:00.184Z,59.06
2023-01-07T08:16:28.280Z,59.00
2023-01-07T08:18:56.347Z,58.92
2023-01-07T08:21:24.401Z,59.14
2023-01-07T08:23:52.483Z,58.93
2023-01-07T08:26:21.863Z,59.00
2023-01-07T08:28:49.924Z,59.37
2023-01-07T08:31:17.979Z,59.74
2023-01-07T08:33:46.044Z,59.51
2023-01-07T08:36:22.623Z,59.34
2023-01-07T08:38:53.261Z,59.40
2023-01-07T08:41:24.458Z,59.18
2023-01-07T08:43:54.162Z,59.32
2023-01-07T08:46:22.252Z,59.25
2023-01-07T08:48:50.286Z,59.16
2023-01-07T08:51:18.465Z,59.41
2023-01-07T08:53:46.512Z,59.56
2023-01-07T08:56:14.534Z,59.46
2023-01-07T08:58:43.926Z,59.36
2023-01-07T09:01:12.121Z,59.35
2023-01-07T09:03:40.215Z,59.42
2023-01-07T09:06:09.083Z,59.47
2023-01-07T09:08:37.270Z,59.19
2023-01-07T09:11:06.308Z,58.94
2023-01-07T09:13:34.365Z,58.91
2023-01-07T09:16:03.816Z,58.60
2023-01-07T09:18:31.887Z,58.51
2023-01-07T09:20:59.900Z,58.31
2023-01-07T09:23:27.956Z,58.50
2023-01-07T09:25:55.967Z,58.35
2023-01-07T09:28:24.048Z,58.12
2023-01-07T09:30:52.081Z,57.71
2023-01-07T09:33:21.507Z,57.52
2023-01-07T09:35:49.522Z,57.22
2023-01-07T09:38:17.748Z,57.36
2023-01-07T09:40:46.609Z,57.26
2023-01-07T09:43:19.030Z,57.32
2023-01-07T09:45:50.903Z,57.20
2023-01-07T09:48:25.289Z,56.96
2023-01-07T09:50:56.737Z,56.74
2023-01-07T09:53:29.065Z,56.60
2023-01-07T09:56:11.373Z,56.22
2023-01-07T09:58:42.789Z,55.75
2023-01-07T10:01:24.160Z,55.16
2023-01-07T10:04:01.146Z,55.14
2023-01-07T10:06:43.453Z,56.03
2023-01-07T10:09:23.868Z,54.94
2023-01-07T10:12:03.072Z,54.20
2023-01-07T10:14:56.495Z,53.25
2023-01-07T10:17:37.049Z,53.39
2023-01-07T10:20:13.686Z,52.16
2023-01-07T10:22:50.113Z,51.80
2023-01-07T10:25:22.150Z,51.71
2023-01-07T10:27:52.546Z,51.24
2023-01-07T10:30:25.882Z,50.87
2023-01-07T10:33:00.871Z,51.30
2023-01-07T10:35:34.426Z,51.39
2023-01-07T10:38:05.882Z,51.37
2023-01-07T10:40:41.970Z,51.46
2023-01-07T10:43:23.933Z,50.99
2023-01-07T10:46:19.008Z,51.31
2023-01-07T10:49:14.692Z,50.90
2023-01-07T10:51:55.939Z,50.71
2023-01-07T10:54:43.173Z,50.79
2023-01-07T10:57:16.026Z,50.84
2023-01-07T10:59:50.035Z,50.25
2023-01-07T11:02:21.989Z,50.40
2023-01-07T11:04:50.448Z,53.99
2023-01-07T11:07:31.163Z,54.81
2023-01-07T11:10:04.234Z,55.52
2023-01-07T11:12:38.094Z,56.29
2023-01-07T11:15:14.740Z,53.11
2023-01-07T11:17:47.164Z,51.98
2023-01-07T11:20:15.187Z,51.82
2023-01-07T11:22:44.625Z,51.95
2023-01-07T11:25:29.711Z,51.88
2023-01-07T11:28:00.761Z,52.16
2023-01-07T11:30:30.208Z,52.14
2023-01-07T11:33:02.518Z,52.07
2023-01-07T11:35:30.783Z,52.11
2023-01-07T11:38:01.404Z,52.40
2023-01-07T11:40:31.216Z,51.88
2023-01-07T11:43:02.162Z,52.28
2023-01-07T11:45:34.060Z,51.81
2023-01-07T11:48:08.752Z,51.28
2023-01-07T11:50:40.065Z,51.53
2023-01-07T11:53:24.605Z,51.21
2023-01-07T11:56:01.565Z,51.15
2023-01-07T11:58:32.052Z,51.16
2023-01-07T12:01:14.576Z,51.17
2023-01-07T12:03:44.289Z,50.94
2023-01-07T12:06:19.147Z,50.80
2023-01-07T12:09:05.758Z,50.57
2023-01-07T12:11:36.513Z,50.91
2023-01-07T12:14:08.720Z,50.67
2023-01-07T12:16:37.352Z,50.62
2023-01-07T12:19:20.149Z,50.42
2023-01-07T12:21:59.578Z,50.24
2023-01-07T12:24:52.884Z,50.57
2023-01-07T12:27:32.463Z,50.66
2023-01-07T12:30:13.115Z,50.92
2023-01-07T12:32:48.724Z,50.86
2023-01-07T12:35:20.428Z,50.98
2023-01-07T12:37:53.654Z,50.72
2023-01-07T12:40:32.308Z,51.05
2023-01-07T12:43:05.206Z,51.43
2023-01-07T12:45:40.822Z,51.13
2023-01-07T12:48:16.888Z,51.09
2023-01-07T12:50:48.319Z,51.36
2023-01-07T12:53:20.467Z,51.19
2023-01-07T12:55:55.089Z,51.14
2023-01-07T12:58:33.897Z,51.05
2023-01-07T13:01:08.741Z,50.81
2023-01-07T13:03:45.379Z,50.97
2023-01-07T13:06:19.738Z,50.76
2023-01-07T13:08:55.719Z,51.07
2023-01-07T13:11:45.519Z,50.87
2023-01-07T13:14:22.242Z,51.08
2023-01-07T13:16:50.454Z,51.30
2023-01-07T13:19:18.617Z,51.28
2023-01-07T13:21:49.591Z,51.03
2023-01-07T13:24:55.612Z,50.72
2023-01-07T13:27:29.459Z,50.76
2023-01-07T13:30:11.885Z,49.89
2023-01-07T13:33:06.567Z,49.44
2023-01-07T13:35:47.143Z,48.63
2023-01-07T13:38:31.304Z,48.55
2023-01-07T13:41:12.980Z,47.84
2023-01-07T13:44:04.023Z,47.62
2023-01-07T13:46:34.379Z,47.89
2023-01-07T13:49:03.027Z,47.92
2023-01-07T13:51:34.023Z,47.81
2023-01-07T13:54:02.233Z,47.68
2023-01-07T13:56:34.113Z,48.03
2023-01-07T13:59:03.672Z,47.69
2023-01-07T14:01:33.610Z,47.70
2023-01-07T14:04:35.857Z,47.69
2023-01-07T14:07:09.989Z,48.28
2023-01-07T14:09:39.893Z,48.06
2023-01-07T14:12:52.688Z,47.79
2023-01-07T14:15:49.791Z,48.01
2023-01-07T14:18:48.525Z,48.44
2023-01-07T14:21:26.025Z,48.62
2023-01-07T14:24:08.332Z,48.18
2023-01-07T14:26:43.466Z,48.71
2023-01-07T14:29:41.712Z,48.90
2023-01-07T14:32:25.887Z,49.07
2023-01-07T14:34:56.939Z,49.08
2023-01-07T14:37:37.210Z,48.80
2023-01-07T14:40:42.846Z,48.92
2023-01-07T14:44:10.661Z,48.99
2023-01-07T14:46:49.659Z,49.15
2023-01-07T14:49:51.108Z,48.90
2023-01-07T14:52:36.014Z,48.93
2023-01-07T14:55:34.220Z,49.21
2023-01-07T14:58:21.163Z,49.41
2023-01-07T15:01:08.052Z,49.63
2023-01-07T15:03:54.267Z,50.40
2023-01-07T15:06:27.548Z,50.42
2023-01-07T15:09:21.393Z,50.56
2023-01-07T15:12:08.836Z,50.91
2023-01-07T15:15:00.634Z,50.88
2023-01-07T15:17:28.780Z,51.39
2023-01-07T15:19:57.968Z,51.62
2023-01-07T15:22:47.398Z,51.53
2023-01-07T15:25:27.062Z,50.90
2023-01-07T15:28:00.415Z,51.14
2023-01-07T15:30:41.128Z,50.99
2023-01-07T15:33:35.907Z,51.19
2023-01-07T15:36:06.322Z,51.58
2023-01-07T15:38:41.513Z,51.61
2023-01-07T15:41:25.968Z,51.82
2023-01-07T15:43:54.763Z,52.02
2023-01-07T15:46:23.651Z,51.96
2023-01-07T15:49:23.307Z,51.87
2023-01-07T15:51:54.543Z,52.31
2023-01-07T15:54:30.374Z,52.38
2023-01-07T15:57:01.597Z,52.53
2023-01-07T15:59:32.470Z,52.51
2023-01-07T16:02:05.360Z,52.75
2023-01-07T16:04:38.309Z,52.48
2023-01-07T16:07:07.664Z,52.72
2023-01-07T16:09:37.137Z,53.08
2023-01-07T16:12:21.135Z,52.97
2023-01-07T16:14:49.174Z,52.87
2023-01-07T16:17:18.578Z,52.96
2023-01-07T16:19:46.642Z,53.00
2023-01-07T16:22:17.115Z,52.70
2023-01-07T16:24:54.176Z,52.97
2023-01-07T16:27:29.286Z,52.96
2023-01-07T16:29:59.900Z,53.06
2023-01-07T16:32:28.439Z,52.65
2023-01-07T16:35:07.458Z,52.75
2023-01-07T16:37:40.396Z,52.69
2023-01-07T16:40:19.265Z,52.41
2023-01-07T16:42:48.277Z,52.67
2023-01-07T16:45:28.671Z,52.49
2023-01-07T16:48:16.759Z,52.51
2023-01-07T16:50:46.568Z,52.26
2023-01-07T16:53:24.191Z,52.15
2023-01-07T16:55:55.514Z,51.82
2023-01-07T16:58:29.980Z,51.84
2023-01-07T17:01:01.030Z,51.58
2023-01-07T17:03:31.112Z,51.59
2023-01-07T17:06:05.239Z,51.52
2023-01-07T17:08:34.199Z,51.62
2023-01-07T17:11:08.389Z,51.33
2023-01-07T17:13:39.273Z,51.27
2023-01-07T17:16:28.557Z,51.55
2023-01-07T17:18:57.837Z,51.34
2023-01-07T17:21:41.236Z,51.02
2023-01-07T17:24:47.254Z,51.17
2023-01-07T17:27:25.560Z,51.22
2023-01-07T17:29:54.327Z,50.88
2023-01-07T17:32:24.222Z,51.21
2023-01-07T17:34:52.401Z,50.95
2023-01-07T17:37:20.408Z,50.76
2023-01-07T17:39:51.110Z,50.76
2023-01-07T17:42:44.518Z,51.11
2023-01-07T17:45:17.235Z,50.69
2023-01-07T17:47:45.569Z,50.63
2023-01-07T17:50:15.492Z,50.75
2023-01-07T17:52:45.478Z,50.57
2023-01-07T17:55:19.369Z,50.92
2023-01-07T17:57:48.861Z,51.24
2023-01-07T18:00:20.143Z,51.06
2023-01-07T18:02:49.003Z,50.82
2023-01-07T18:05:19.544Z,51.16
2023-01-07T18:07:48.114Z,50.60
2023-01-07T18:10:18.178Z,50.63
2023-01-07T18:12:45.322Z,51.01
2023-01-07T18:15:21.669Z,51.06
2023-01-07T18:17:49.772Z,51.48
2023-01-07T18:20:19.239Z,52.02
2023-01-07T18:22:48.075Z,52.27
2023-01-07T18:25:18.437Z,52.94
2023-01-07T18:27:46.658Z,53.34
2023-01-07T18:30:19.167Z,53.95
2023-01-07T18:32:48.260Z,54.87
2023-01-07T18:35:19.047Z,55.07
2023-01-07T18:37:49.887Z,54.86
2023-01-07T18:40:18.827Z,54.63
2023-01-07T18:42:46.960Z,54.30
2023-01-07T18:45:15.683Z,53.65
2023-01-07T18:47:45.960Z,53.72
2023-01-07T18:50:14.396Z,53.39
2023-01-07T18:52:43.607Z,53.10
2023-01-07T18:55:12.742Z,52.95
2023-01-07T18:57:40.775Z,52.81
2023-01-07T19:00:10.346Z,52.21
2023-01-07T19:02:38.368Z,52.31
2023-01-07T19:05:08.767Z,51.75
2023-01-07T19:07:37.044Z,51.87
2023-01-07T19:10:05.912Z,51.97
2023-01-07T19:12:34.055Z,52.11
2023-01-07T19:15:02.120Z,52.27
2023-01-07T19:17:30.133Z,51.96
2023-01-07T19:19:58.215Z,52.20
2023-01-07T19:22:28.760Z,51.92
2023-01-07T19:24:56.968Z,51.74
2023-01-07T19:27:25.211Z,51.83
2023-01-07T19:29:53.208Z,51.61
2023-01-07T19:32:21.235Z,52.44
2023-01-07T19:34:52.294Z,52.72
2023-01-07T19:37:21.943Z,52.96
2023-01-07T19:39:51.463Z,53.28
2023-01-07T19:42:19.508Z,53.10
2023-01-07T19:44:47.496Z,54.54
2023-01-07T19:47:17.241Z,54.28
2023-01-07T19:49:45.646Z,53.98
2023-01-07T19:52:13.752Z,54.16
2023-01-07T19:54:42.276Z,54.20
2023-01-07T19:57:11.723Z,54.37
2023-01-07T19:59:39.745Z,54.26
2023-01-07T20:02:07.976Z,54.06
2023-01-07T20:04:36.097Z,53.68
2023-01-07T20:07:04.193Z,53.59
2023-01-07T20:09:32.867Z,53.32
2023-01-07T20:12:00.896Z,53.10
2023-01-07T20:14:30.317Z,53.21
2023-01-07T20:16:58.367Z,56.11
2023-01-07T20:19:27.247Z,57.27
2023-01-07T20:21:55.330Z,57.89
2023-01-07T20:24:23.334Z,57.92
2023-01-07T20:26:53.165Z,57.96
2023-01-07T20:29:22.534Z,58.16
2023-01-07T20:31:51.960Z,54.81
2023-01-07T20:34:20.089Z,53.97
2023-01-07T20:36:48.255Z,53.68
2023-01-07T20:39:16.272Z,53.85
2023-01-07T20:41:44.345Z,53.67
2023-01-07T20:44:13.217Z,53.99
2023-01-07T20:46:41.931Z,53.81
2023-01-07T20:49:12.503Z,53.84
2023-01-07T20:51:40.755Z,53.76
2023-01-07T20:54:08.974Z,53.97
2023-01-07T20:56:37.086Z,54.13
2023-01-07T20:59:05.112Z,54.22
2023-01-07T21:01:33.329Z,54.20
2023-01-07T21:04:01.906Z,54.07
2023-01-07T21:06:31.829Z,54.29
2023-01-07T21:09:00.115Z,54.35
2023-01-07T21:11:28.212Z,54.10
2023-01-07T21:13:56.530Z,54.10
2023-01-07T21:16:25.610Z,54.05
2023-01-07T21:18:53.772Z,53.72
2023-01-07T21:21:25.254Z,53.78
2023-01-07T21:23:55.019Z,54.31
2023-01-07T21:26:23.948Z,54.04
2023-01-07T21:28:55.760Z,53.17
2023-01-07T21:31:24.136Z,53.20
2023-01-07T21:33:55.172Z,53.40
2023-01-07T21:36:23.920Z,53.91
2023-01-07T21:38:56.389Z,53.45
2023-01-07T21:41:25.504Z,53.06
2023-01-07T21:43:53.661Z,53.44
2023-01-07T21:46:23.012Z,53.18
2023-01-07T21:48:51.884Z,53.15
2023-01-07T21:51:22.234Z,53.47
2023-01-07T21:53:52.034Z,53.49
2023-01-07T21:56:21.477Z,53.28
2023-01-07T21:58:50.078Z,53.54
2023-01-07T22:01:19.211Z,53.52
2023-01-07T22:03:49.407Z,53.07
2023-01-07T22:06:21.234Z,53.42
2023-01-07T22:08:49.998Z,53.61
2023-01-07T22:11:19.285Z,53.40
2023-01-07T22:13:52.391Z,53.01
2023-01-07T22:16:20.818Z,53.20
2023-01-07T22:18:49.562Z,53.23
2023-01-07T22:21:19.006Z,53.34
2023-01-07T22:23:47.931Z,53.45
2023-01-07T22:26:18.113Z,53.01
2023-01-07T22:28:50.104Z,53.35
2023-01-07T22:31:23.566Z,53.12
2023-01-07T22:33:52.375Z,53.00
2023-01-07T22:36:25.633Z,52.87
2023-01-07T22:38:55.207Z,52.77
2023-01-07T22:41:23.279Z,52.65
2023-01-07T22:43:51.340Z,52.89
2023-01-07T22:46:24.451Z,52.87
2023-01-07T22:48:53.415Z,52.82
2023-01-07T22:51:29.788Z,52.98
2023-01-07T22:54:00.495Z,52.78
2023-01-07T22:56:29.136Z,53.26
2023-01-07T22:58:57.132Z,53.43
2023-01-07T23:01:26.663Z,53.20
2023-01-07T23:03:54.742Z,53.31
2023-01-07T23:06:22.820Z,53.30
2023-01-07T23:08:50.824Z,53.80
2023-01-07T23:11:32.726Z,53.78
2023-01-07T23:14:00.782Z,53.77
2023-01-07T23:16:30.312Z,54.37
2023-01-07T23:18:58.409Z,54.59
2023-01-07T23:21:26.465Z,54.32
2023-01-07T23:23:54.459Z,54.08
2023-01-07T23:26:22.506Z,54.36
2023-01-07T23:28:50.551Z,54.50
2023-01-07T23:31:18.664Z,54.38
2023-01-07T23:33:48.105Z,54.55
2023-01-07T23:36:16.144Z,55.04
2023-01-07T23:38:44.283Z,54.65
2023-01-07T23:41:13.438Z,54.50
2023-01-07T23:43:41.475Z,54.96
2023-01-07T23:46:09.610Z,54.80
2023-01-07T23:48:39.095Z,54.38
2023-01-07T23:51:10.148Z,54.42
2023-01-07T23:53:38.575Z,54.80
2023-01-07T23:56:07.605Z,55.30
2023-01-07T23:58:36.325Z,55.55
